Time;durP1;ratioP1;P1;durP2;ratioP2;P2;SDS_P1;SDS_P2;PMS_P1;PMS_P2;Temp;Humidity;BMP_temperature;BMP_pressure;BME280_temperature;BME280_humidity;BME280_pressure;Samples;Min_cycle;Max_cycle;Signal;HPM_P1;HPM_P2
2021/06/12 00:01:37;;;;;;;9.60;6.22;;;20.80;99.90;;;;;;4932902;29;20228;-81
2021/06/12 00:04:04;;;;;;;6.85;6.20;;;20.90;99.90;;;;;;4932235;29;20187;-82
2021/06/12 00:06:32;;;;;;;6.50;6.00;;;20.70;99.90;;;;;;4936693;29;20200;-83
2021/06/12 00:08:58;;;;;;;5.95;5.40;;;20.80;99.90;;;;;;4947477;28;20195;-81
2021/06/12 00:11:25;;;;;;;6.15;5.65;;;20.60;99.90;;;;;;4934002;29;20220;-83
2021/06/12 00:13:51;;;;;;;6.05;5.47;;;20.70;99.90;;;;;;4934014;29;20207;-82
2021/06/12 00:16:20;;;;;;;7.53;6.00;;;20.70;99.90;;;;;;4931564;29;20200;-82
2021/06/12 00:18:47;;;;;;;6.90;6.20;;;20.60;99.90;;;;;;4929212;29;20679;-80
2021/06/12 00:21:14;;;;;;;8.00;7.15;;;20.60;99.90;;;;;;4932402;29;20228;-82
2021/06/12 00:23:40;;;;;;;8.00;7.30;;;20.50;99.90;;;;;;4931517;29;20263;-83
2021/06/12 00:26:07;;;;;;;7.70;6.32;;;20.40;99.90;;;;;;4911720;29;20245;-81
2021/06/12 00:28:36;;;;;;;8.27;7.53;;;20.40;99.90;;;;;;4930856;29;20211;-80
2021/06/12 00:31:10;;;;;;;7.90;7.20;;;20.40;99.90;;;;;;4926655;29;20238;-81
2021/06/12 00:33:38;;;;;;;6.55;6.00;;;20.50;99.90;;;;;;4927944;29;20248;-83
2021/06/12 00:36:05;;;;;;;8.25;7.45;;;20.50;99.90;;;;;;4933443;29;20259;-82
2021/06/12 00:38:31;;;;;;;7.22;6.63;;;20.60;99.90;;;;;;4922555;29;20199;-79
2021/06/12 00:40:58;;;;;;;10.05;8.30;;;20.80;99.90;;;;;;4914197;29;20204;-82
2021/06/12 00:43:24;;;;;;;8.85;8.00;;;20.80;99.90;;;;;;4914830;29;20637;-81
2021/06/12 00:45:51;;;;;;;8.55;7.68;;;20.70;99.90;;;;;;4914246;29;20798;-83
2021/06/12 00:48:17;;;;;;;7.40;6.40;;;20.70;99.90;;;;;;4914671;29;20723;-83
2021/06/12 00:50:45;;;;;;;8.05;7.35;;;20.80;99.90;;;;;;4914930;29;20196;-83
2021/06/12 00:53:18;;;;;;;8.95;8.15;;;20.70;99.90;;;;;;4914799;29;20205;-80
2021/06/12 00:55:45;;;;;;;8.32;7.63;;;20.70;99.90;;;;;;4919768;29;20264;-81
2021/06/12 00:58:15;;;;;;;7.90;7.10;;;20.60;99.90;;;;;;4931036;29;20192;-82
2021/06/12 01:00:42;;;;;;;8.68;7.88;;;20.60;99.90;;;;;;4929879;29;20200;-80
2021/06/12 01:03:10;;;;;;;9.77;8.13;;;20.60;99.90;;;;;;4942037;29;20212;-81
2021/06/12 01:05:36;;;;;;;8.85;8.05;;;20.50;99.90;;;;;;4919114;29;20216;-80
2021/06/12 01:08:04;;;;;;;9.50;8.70;;;20.70;99.90;;;;;;4935931;29;20203;-80
2021/06/12 01:10:31;;;;;;;8.30;7.57;;;20.60;99.90;;;;;;4926555;29;20207;-80
2021/06/12 01:13:06;;;;;;;10.93;7.63;;;20.50;99.90;;;;;;4924475;29;20224;-82
2021/06/12 01:15:37;;;;;;;9.70;8.13;;;20.50;99.90;;;;;;4926071;29;20682;-81
2021/06/12 01:18:09;;;;;;;8.32;7.63;;;20.50;99.90;;;;;;4928828;29;20264;-80
2021/06/12 01:20:58;;;;;;;9.18;8.18;;;20.50;99.90;;;;;;4932266;29;20207;-82
2021/06/12 01:23:55;;;;;;;9.18;8.48;;;20.40;99.90;;;;;;4930002;29;20283;-81
2021/06/12 01:26:36;;;;;;;9.30;8.10;;;20.40;99.90;;;;;;4897461;29;20228;-83
2021/06/12 01:29:15;;;;;;;10.77;9.63;;;20.50;99.90;;;;;;4931110;29;20208;-82
2021/06/12 01:31:43;;;;;;;10.05;9.13;;;20.90;99.90;;;;;;4930746;29;20243;-82
2021/06/12 01:34:11;;;;;;;12.43;10.02;;;21.10;99.90;;;;;;4931934;29;20233;-83
2021/06/12 01:36:38;;;;;;;11.48;10.55;;;21.00;99.90;;;;;;4931568;29;20208;-80
2021/06/12 01:39:05;;;;;;;11.27;10.20;;;20.80;99.90;;;;;;4929363;29;20208;-81
2021/06/12 01:41:34;;;;;;;11.60;10.50;;;20.80;99.90;;;;;;4930271;29;20231;-81
2021/06/12 01:44:02;;;;;;;12.68;9.85;;;20.70;99.90;;;;;;4929073;29;20649;-80
2021/06/12 01:46:30;;;;;;;11.70;9.77;;;20.60;99.90;;;;;;4927676;29;20228;-83
2021/06/12 01:49:00;;;;;;;11.50;10.40;;;20.50;99.90;;;;;;4947710;29;20208;-81
2021/06/12 01:51:27;;;;;;;10.27;9.32;;;20.40;99.90;;;;;;4931471;29;20232;-81
2021/06/12 01:53:55;;;;;;;10.45;9.45;;;20.40;99.90;;;;;;4932031;29;20663;-82
2021/06/12 01:56:25;;;;;;;11.77;10.68;;;20.30;99.90;;;;;;4931333;29;20200;-81
2021/06/12 01:58:52;;;;;;;11.70;9.73;;;20.40;99.90;;;;;;4931892;29;20212;-81
2021/06/12 02:01:21;;;;;;;11.52;10.48;;;20.50;99.90;;;;;;4928856;29;20580;-81
2021/06/12 02:03:50;;;;;;;11.25;10.25;;;20.60;99.90;;;;;;4928846;29;20298;-82
2021/06/12 02:06:18;;;;;;;10.38;9.40;;;20.50;99.90;;;;;;4927240;29;21757;-80
2021/06/12 02:08:46;;;;;;;10.05;9.25;;;20.40;99.90;;;;;;4929894;29;20204;-81
2021/06/12 02:11:13;;;;;;;12.65;11.48;;;20.20;99.90;;;;;;4914294;29;20227;-82
2021/06/12 02:13:42;;;;;;;10.55;9.57;;;20.20;99.90;;;;;;4911659;29;20812;-81
2021/06/12 02:16:09;;;;;;;12.23;10.90;;;20.10;99.90;;;;;;4907845;29;20209;-81
2021/06/12 02:18:37;;;;;;;11.27;10.38;;;20.30;99.90;;;;;;4911827;29;20688;-81
2021/06/12 02:21:05;;;;;;;12.15;10.95;;;20.20;99.90;;;;;;4913797;29;20668;-80
2021/06/12 02:23:34;;;;;;;10.35;9.35;;;20.20;99.90;;;;;;4911284;29;20209;-82
2021/06/12 02:26:02;;;;;;;10.80;9.70;;;20.30;99.90;;;;;;4915777;29;20216;-84
2021/06/12 02:28:34;;;;;;;10.13;9.32;;;20.30;99.90;;;;;;4922680;29;20220;-83
2021/06/12 02:31:05;;;;;;;10.93;10.00;;;20.30;99.90;;;;;;4944906;29;20227;-84
2021/06/12 02:33:33;;;;;;;10.90;9.80;;;20.40;99.90;;;;;;4937625;29;20225;-84
2021/06/12 02:36:01;;;;;;;11.80;10.70;;;20.40;99.90;;;;;;4934134;29;20199;-84
2021/06/12 02:38:27;;;;;;;13.80;9.88;;;20.20;99.90;;;;;;4940371;29;20180;-80
2021/06/12 02:40:56;;;;;;;10.48;9.50;;;20.20;99.90;;;;;;4941185;29;20216;-83
2021/06/12 02:43:22;;;;;;;10.57;9.68;;;20.20;99.90;;;;;;4936409;29;20310;-83
2021/06/12 02:45:49;;;;;;;12.10;11.10;;;20.20;99.90;;;;;;4936112;29;20710;-83
2021/06/12 02:48:17;;;;;;;11.75;10.73;;;20.30;99.90;;;;;;4935438;29;20231;-83
2021/06/12 02:50:46;;;;;;;13.00;9.80;;;20.10;99.90;;;;;;4934833;29;20283;-83
2021/06/12 02:53:14;;;;;;;12.25;9.88;;;20.00;99.90;;;;;;4935582;29;20236;-81
2021/06/12 02:55:43;;;;;;;11.43;10.38;;;19.90;99.90;;;;;;4950379;29;20208;-83
2021/06/12 02:58:13;;;;;;;11.30;10.27;;;19.90;99.90;;;;;;4933598;29;20665;-83
2021/06/12 03:00:42;;;;;;;12.07;10.95;;;20.10;99.90;;;;;;4927036;29;20284;-82
2021/06/12 03:03:12;;;;;;;14.00;12.60;;;20.00;99.90;;;;;;4962583;23;20255;-82
2021/06/12 03:05:43;;;;;;;12.23;10.95;;;20.00;99.90;;;;;;4949785;29;20238;-81
2021/06/12 03:08:12;;;;;;;14.75;13.35;;;20.00;99.90;;;;;;4964126;29;20683;-82
2021/06/12 03:10:41;;;;;;;14.80;13.30;;;20.00;99.90;;;;;;4950466;29;20199;-82
2021/06/12 03:13:13;;;;;;;15.73;14.13;;;19.90;99.90;;;;;;4948136;29;20299;-83
2021/06/12 03:15:43;;;;;;;12.20;11.00;;;20.00;99.90;;;;;;4948419;29;20199;-82
2021/06/12 03:18:10;;;;;;;15.20;13.80;;;19.90;99.90;;;;;;4950952;29;20275;-82
2021/06/12 03:20:37;;;;;;;14.55;13.15;;;19.80;99.90;;;;;;4922050;29;20299;-82
2021/06/12 03:23:05;;;;;;;16.98;14.50;;;19.90;99.90;;;;;;4929376;29;20235;-82
2021/06/12 03:25:32;;;;;;;17.45;14.63;;;20.00;99.90;;;;;;4928835;29;20223;-82
2021/06/12 03:27:59;;;;;;;15.15;13.85;;;20.00;99.90;;;;;;4940384;29;20282;-81
2021/06/12 03:30:28;;;;;;;14.38;13.18;;;19.90;99.90;;;;;;4949154;29;20226;-83
2021/06/12 03:32:56;;;;;;;16.27;14.65;;;19.90;99.90;;;;;;4948291;29;20223;-82
2021/06/12 03:35:23;;;;;;;14.52;13.13;;;19.90;99.90;;;;;;4931893;29;20203;-80
2021/06/12 03:37:50;;;;;;;18.75;15.73;;;19.80;99.90;;;;;;4931833;29;20230;-83
2021/06/12 03:40:18;;;;;;;16.80;14.75;;;19.90;99.90;;;;;;4948962;29;20204;-83
2021/06/12 03:42:46;;;;;;;16.38;14.70;;;20.00;99.90;;;;;;4948340;29;20290;-82
2021/06/12 03:45:14;;;;;;;17.58;15.35;;;20.00;99.90;;;;;;4949175;29;20231;-82
2021/06/12 03:47:43;;;;;;;20.05;16.88;;;19.90;99.90;;;;;;4949228;29;20234;-82
2021/06/12 03:50:12;;;;;;;16.05;13.93;;;19.90;99.90;;;;;;4946406;29;20290;-81
2021/06/12 03:52:41;;;;;;;16.77;15.18;;;19.70;99.90;;;;;;4948463;29;20235;-82
2021/06/12 03:55:08;;;;;;;17.40;15.52;;;19.80;99.90;;;;;;4947719;29;20195;-82
2021/06/12 03:57:36;;;;;;;18.02;16.13;;;19.90;99.90;;;;;;4931576;29;20215;-81
2021/06/12 04:00:08;;;;;;;17.00;15.27;;;20.00;99.90;;;;;;4947163;29;20275;-82
2021/06/12 04:02:39;;;;;;;18.27;16.40;;;20.00;99.90;;;;;;4948798;29;20226;-82
2021/06/12 04:05:08;;;;;;;22.95;18.63;;;20.00;99.90;;;;;;4947309;29;20230;-81
2021/06/12 04:07:37;;;;;;;18.13;15.45;;;20.00;99.90;;;;;;4948185;29;20255;-81
2021/06/12 04:10:04;;;;;;;17.88;15.98;;;19.90;99.90;;;;;;4946336;29;20575;-81
2021/06/12 04:12:31;;;;;;;20.25;16.45;;;20.00;99.90;;;;;;4945807;29;20233;-81
2021/06/12 04:14:58;;;;;;;20.15;18.08;;;20.00;99.90;;;;;;4946879;29;20200;-81
2021/06/12 04:17:24;;;;;;;17.75;15.13;;;19.80;99.90;;;;;;4952644;28;20187;-84
2021/06/12 04:19:51;;;;;;;19.35;16.70;;;19.80;99.90;;;;;;4955168;28;20223;-83
2021/06/12 04:22:19;;;;;;;25.38;18.98;;;19.90;99.90;;;;;;4953474;29;20231;-82
2021/06/12 04:24:45;;;;;;;19.42;16.38;;;20.00;99.90;;;;;;4948559;29;20231;-82
2021/06/12 04:27:12;;;;;;;19.98;17.75;;;20.20;99.90;;;;;;4933691;29;20200;-82
2021/06/12 04:29:38;;;;;;;19.42;16.98;;;20.20;99.90;;;;;;4936544;28;20210;-86
2021/06/12 04:32:06;;;;;;;20.92;18.77;;;20.30;99.90;;;;;;4959123;28;20215;-85
2021/06/12 04:34:32;;;;;;;20.42;17.90;;;20.10;99.90;;;;;;4959976;28;20218;-85
2021/06/12 04:37:02;;;;;;;23.38;18.70;;;20.30;99.90;;;;;;4960955;28;20183;-85
2021/06/12 04:39:30;;;;;;;21.83;19.48;;;20.30;99.90;;;;;;4963547;28;20191;-86
2021/06/12 04:41:57;;;;;;;20.00;17.85;;;20.30;99.90;;;;;;4963026;28;20202;-85
2021/06/12 04:44:24;;;;;;;25.05;20.35;;;20.30;99.90;;;;;;4963125;28;20184;-85
2021/06/12 04:46:50;;;;;;;22.40;18.95;;;20.20;99.90;;;;;;4962815;28;20231;-84
2021/06/12 04:49:17;;;;;;;18.88;16.92;;;20.10;99.90;;;;;;4962717;28;20183;-82
2021/06/12 04:51:43;;;;;;;23.45;18.42;;;20.00;99.90;;;;;;4961922;28;20223;-83
2021/06/12 04:54:09;;;;;;;21.52;19.30;;;20.00;99.90;;;;;;4944387;29;20208;-84
2021/06/12 04:56:38;;;;;;;22.13;19.50;;;20.00;99.90;;;;;;4943662;29;20195;-84
2021/06/12 04:59:05;;;;;;;22.45;19.23;;;20.10;99.90;;;;;;4943370;29;20235;-84
2021/06/12 05:01:31;;;;;;;25.75;22.63;;;20.10;99.90;;;;;;4944035;29;20254;-83
2021/06/12 05:03:58;;;;;;;30.10;23.27;;;20.20;99.90;;;;;;4944055;29;20180;-83
2021/06/12 05:06:24;;;;;;;22.83;20.15;;;20.20;99.90;;;;;;4942924;29;20215;-84
2021/06/12 05:08:51;;;;;;;27.25;21.85;;;20.20;99.90;;;;;;4943430;29;20203;-85
2021/06/12 05:11:18;;;;;;;25.48;21.25;;;20.40;99.90;;;;;;4927527;29;20196;-85
2021/06/12 05:13:46;;;;;;;26.52;22.15;;;20.60;99.90;;;;;;4943583;29;20192;-84
2021/06/12 05:16:12;;;;;;;26.75;21.48;;;20.30;99.90;;;;;;4943997;29;20214;-83
2021/06/12 05:18:41;;;;;;;26.42;23.60;;;20.10;99.90;;;;;;4943774;29;20188;-84
2021/06/12 05:21:09;;;;;;;26.73;23.85;;;20.10;99.90;;;;;;4943168;29;20215;-84
2021/06/12 05:23:36;;;;;;;25.45;22.02;;;20.20;99.90;;;;;;4939152;29;20204;-82
2021/06/12 05:26:04;;;;;;;28.05;25.13;;;20.40;99.90;;;;;;4931408;29;20220;-79
2021/06/12 05:28:31;;;;;;;28.88;23.55;;;20.40;99.90;;;;;;4936222;29;20208;-78
2021/06/12 05:30:59;;;;;;;28.35;22.17;;;20.60;99.90;;;;;;4937568;29;20306;-78
2021/06/12 05:33:26;;;;;;;27.00;24.08;;;20.60;99.90;;;;;;4935535;29;20633;-78
2021/06/12 05:35:55;;;;;;;26.63;23.17;;;20.50;99.90;;;;;;4936977;29;20203;-78
2021/06/12 05:38:22;;;;;;;28.58;25.55;;;20.50;99.90;;;;;;4930858;29;20675;-78
2021/06/12 05:40:49;;;;;;;28.73;25.08;;;20.50;99.90;;;;;;4901050;29;20207;-78
2021/06/12 05:43:15;;;;;;;27.52;22.90;;;20.50;99.90;;;;;;4916626;29;20703;-78
2021/06/12 05:45:43;;;;;;;27.95;24.83;;;20.50;99.90;;;;;;4918622;29;20620;-79
2021/06/12 05:48:11;;;;;;;27.52;22.60;;;20.60;99.90;;;;;;4916084;29;20230;-79
2021/06/12 05:50:38;;;;;;;30.90;26.80;;;20.30;99.90;;;;;;4917788;29;20214;-79
2021/06/12 05:53:04;;;;;;;26.83;23.92;;;20.40;99.90;;;;;;4917992;29;20786;-80
2021/06/12 05:55:31;;;;;;;30.42;26.20;;;20.40;99.90;;;;;;4917652;29;20656;-78
2021/06/12 05:57:58;;;;;;;29.92;23.73;;;20.50;99.90;;;;;;4917699;29;20203;-78
2021/06/12 06:00:27;;;;;;;34.35;25.85;;;20.60;99.90;;;;;;4917540;29;20200;-79
2021/06/12 06:02:53;;;;;;;29.25;26.15;;;20.60;99.90;;;;;;4917317;29;20274;-79
2021/06/12 06:05:21;;;;;;;27.80;24.38;;;20.50;99.90;;;;;;4917415;29;20733;-78
2021/06/12 06:07:48;;;;;;;26.50;23.65;;;20.30;99.90;;;;;;4917457;29;20717;-78
2021/06/12 06:10:15;;;;;;;27.42;22.38;;;20.30;99.90;;;;;;4916944;29;20208;-78
2021/06/12 06:12:41;;;;;;;29.42;25.38;;;20.40;99.90;;;;;;4917290;29;20711;-78
2021/06/12 06:15:10;;;;;;;27.50;24.52;;;20.30;99.90;;;;;;4917385;29;20295;-79
2021/06/12 06:17:37;;;;;;;26.17;23.40;;;20.30;99.90;;;;;;4918024;29;20207;-78
2021/06/12 06:20:05;;;;;;;31.40;24.25;;;20.30;99.90;;;;;;4917043;29;20204;-78
2021/06/12 06:22:33;;;;;;;27.73;23.05;;;20.40;99.90;;;;;;4916880;29;20215;-77
2021/06/12 06:25:00;;;;;;;26.88;21.92;;;20.40;99.90;;;;;;4916937;29;20520;-78
2021/06/12 06:27:26;;;;;;;28.30;21.27;;;20.50;99.90;;;;;;4917218;29;20721;-78
2021/06/12 06:29:53;;;;;;;22.77;20.17;;;20.50;99.90;;;;;;4921236;29;20271;-78
2021/06/12 06:32:20;;;;;;;27.70;21.90;;;20.30;99.90;;;;;;4934823;29;20733;-78
2021/06/12 06:34:53;;;;;;;26.88;22.92;;;20.40;99.90;;;;;;4934846;29;20243;-79
2021/06/12 06:37:20;;;;;;;26.63;20.27;;;20.40;99.90;;;;;;4936163;29;20203;-78
2021/06/12 06:39:48;;;;;;;25.00;20.33;;;20.40;99.90;;;;;;4935924;29;20736;-77
2021/06/12 06:42:15;;;;;;;22.15;19.73;;;20.30;99.90;;;;;;4930091;29;20216;-78
2021/06/12 06:44:41;;;;;;;19.77;17.50;;;20.30;99.90;;;;;;4934596;29;20226;-80
2021/06/12 06:47:09;;;;;;;24.38;20.02;;;20.30;99.90;;;;;;4934931;29;20199;-79
2021/06/12 06:49:35;;;;;;;20.48;18.38;;;20.40;99.90;;;;;;4934481;29;20555;-79
2021/06/12 06:52:02;;;;;;;20.08;17.00;;;20.30;99.90;;;;;;4935846;29;20246;-79
2021/06/12 06:54:29;;;;;;;19.27;16.55;;;20.20;99.90;;;;;;4935072;29;20195;-78
2021/06/12 06:56:57;;;;;;;20.30;16.70;;;20.10;99.90;;;;;;4935742;29;20206;-78
2021/06/12 06:59:24;;;;;;;18.05;16.15;;;20.30;99.90;;;;;;4934664;29;20268;-78
2021/06/12 07:01:50;;;;;;;17.15;15.50;;;20.30;99.90;;;;;;4927554;29;20236;-79
2021/06/12 07:04:17;;;;;;;18.92;15.48;;;20.30;99.90;;;;;;4916612;29;20211;-78
2021/06/12 07:06:44;;;;;;;18.40;15.65;;;20.20;99.90;;;;;;4915165;29;20288;-78
2021/06/12 07:09:10;;;;;;;19.15;16.55;;;20.30;99.90;;;;;;4915085;29;20614;-78
2021/06/12 07:11:37;;;;;;;16.15;14.57;;;20.30;99.90;;;;;;4935331;29;20226;-78
2021/06/12 07:14:05;;;;;;;16.02;14.43;;;20.30;99.90;;;;;;4934319;29;20207;-80
2021/06/12 07:16:31;;;;;;;17.40;15.65;;;20.50;99.90;;;;;;4935685;29;20206;-78
2021/06/12 07:18:58;;;;;;;15.75;14.15;;;20.40;99.90;;;;;;4934725;29;20196;-79
2021/06/12 07:21:25;;;;;;;17.02;13.13;;;20.20;99.90;;;;;;4934994;29;20207;-78
2021/06/12 07:24:00;;;;;;;15.82;14.23;;;20.40;99.90;;;;;;4933581;29;20572;-78
2021/06/12 07:26:27;;;;;;;14.05;12.55;;;20.70;99.90;;;;;;4933675;29;20649;-79
2021/06/12 07:28:54;;;;;;;18.05;14.25;;;20.90;99.90;;;;;;4932539;29;20577;-78
2021/06/12 07:31:22;;;;;;;21.27;16.35;;;21.00;99.90;;;;;;4935662;29;20208;-79
2021/06/12 07:33:48;;;;;;;20.48;16.00;;;21.00;99.90;;;;;;4935873;29;20203;-79
2021/06/12 07:36:15;;;;;;;16.83;14.77;;;20.90;99.90;;;;;;4935000;29;20199;-79
2021/06/12 07:38:42;;;;;;;21.25;15.55;;;20.80;99.90;;;;;;4934623;29;20544;-79
2021/06/12 07:41:08;;;;;;;17.83;15.77;;;20.80;99.90;;;;;;4935680;29;20199;-79
2021/06/12 07:43:35;;;;;;;17.17;15.10;;;20.70;99.90;;;;;;4928467;29;20195;-80
2021/06/12 07:46:01;;;;;;;15.88;14.38;;;20.60;99.90;;;;;;4928625;29;20230;-81
2021/06/12 07:48:29;;;;;;;14.35;12.85;;;20.60;99.90;;;;;;4934646;29;20584;-79
2021/06/12 07:50:56;;;;;;;14.98;12.63;;;20.80;99.90;;;;;;4939867;29;20547;-80
2021/06/12 07:53:23;;;;;;;17.17;11.80;;;21.10;99.90;;;;;;4930854;29;20352;-80
2021/06/12 07:55:49;;;;;;;11.35;10.25;;;21.10;99.90;;;;;;4947219;29;20199;-81
2021/06/12 07:58:16;;;;;;;10.80;9.65;;;21.10;99.90;;;;;;4938805;29;20286;-80
2021/06/12 08:00:43;;;;;;;11.88;10.10;;;21.20;99.90;;;;;;4931537;29;20261;-78
2021/06/12 08:03:09;;;;;;;13.13;11.32;;;21.00;99.90;;;;;;4928662;29;20283;-78
2021/06/12 08:05:37;;;;;;;12.27;10.88;;;21.00;99.90;;;;;;4923427;29;20572;-77
2021/06/12 08:08:07;;;;;;;13.43;10.25;;;21.10;99.90;;;;;;4927452;29;20203;-77
2021/06/12 08:10:34;;;;;;;11.98;10.80;;;21.30;99.90;;;;;;4928418;29;20212;-77
2021/06/12 08:13:01;;;;;;;14.32;11.02;;;21.40;99.90;;;;;;4930601;29;20223;-78
2021/06/12 08:15:27;;;;;;;12.10;10.38;;;21.50;99.90;;;;;;4929736;29;20590;-79
2021/06/12 08:17:54;;;;;;;13.77;11.75;;;21.30;99.90;;;;;;4927197;29;20200;-78
2021/06/12 08:20:22;;;;;;;12.73;11.02;;;21.30;99.90;;;;;;4927797;29;20204;-77
2021/06/12 08:22:50;;;;;;;13.20;11.75;;;21.20;99.90;;;;;;4934808;29;20226;-77
2021/06/12 08:25:18;;;;;;;14.43;10.35;;;21.30;99.90;;;;;;4929754;29;20726;-77
2021/06/12 08:27:45;;;;;;;11.13;10.07;;;21.50;99.90;;;;;;4921911;29;20197;-78
2021/06/12 08:30:13;;;;;;;11.50;10.35;;;21.50;99.90;;;;;;4934872;29;20267;-75
2021/06/12 08:32:40;;;;;;;10.77;9.75;;;21.50;99.90;;;;;;4932879;29;20227;-77
2021/06/12 08:35:07;;;;;;;15.18;10.43;;;21.50;99.90;;;;;;4937524;29;20207;-77
2021/06/12 08:37:34;;;;;;;13.02;10.75;;;21.50;99.90;;;;;;4939060;29;20211;-76
2021/06/12 08:40:02;;;;;;;12.38;10.52;;;21.40;99.90;;;;;;4937094;29;20335;-77
2021/06/12 08:42:30;;;;;;;12.50;10.90;;;21.20;99.90;;;;;;4938693;29;20229;-77
2021/06/12 08:44:59;;;;;;;11.05;9.80;;;21.20;99.90;;;;;;4950330;28;20218;-75
2021/06/12 08:47:26;;;;;;;12.05;10.30;;;21.30;99.90;;;;;;4956391;28;20198;-74
2021/06/12 08:49:53;;;;;;;13.00;11.68;;;21.40;99.90;;;;;;4942645;29;20211;-77
2021/06/12 08:52:19;;;;;;;12.18;10.95;;;21.40;99.90;;;;;;4937412;29;20224;-77
2021/06/12 08:54:46;;;;;;;10.18;8.88;;;21.40;99.90;;;;;;4926128;29;20259;-77
2021/06/12 08:57:14;;;;;;;12.50;11.40;;;21.50;99.90;;;;;;4938111;29;20223;-76
2021/06/12 08:59:41;;;;;;;10.52;9.52;;;21.60;99.90;;;;;;4928361;29;20231;-77
2021/06/12 09:02:08;;;;;;;12.35;11.13;;;21.60;99.90;;;;;;4970162;23;20319;-80
2021/06/12 09:04:37;;;;;;;13.55;11.30;;;21.60;99.90;;;;;;4929162;29;20223;-81
2021/06/12 09:07:22;;;;;;;12.80;10.75;;;21.60;99.90;;;;;;4936097;29;20348;-81
2021/06/12 09:09:51;;;;;;;14.55;11.00;;;21.30;99.90;;;;;;4924873;29;20253;-82
2021/06/12 09:12:19;;;;;;;14.25;11.90;;;21.30;99.90;;;;;;4934583;29;20249;-82
2021/06/12 09:15:07;;;;;;;12.15;10.70;;;21.60;99.90;;;;;;4913949;29;20691;-81
2021/06/12 09:17:39;;;;;;;11.77;10.65;;;21.90;99.90;;;;;;4929591;29;20199;-82
2021/06/12 09:20:08;;;;;;;12.27;9.55;;;21.80;99.90;;;;;;4940576;29;20239;-82
2021/06/12 09:22:35;;;;;;;11.15;10.02;;;21.60;99.90;;;;;;4939798;29;20266;-83
2021/06/12 09:25:02;;;;;;;11.32;10.27;;;21.60;99.90;;;;;;4943219;29;20208;-85
2021/06/12 09:27:31;;;;;;;14.65;10.85;;;21.60;99.90;;;;;;4925126;29;20350;-81
2021/06/12 09:30:00;;;;;;;13.57;10.18;;;21.50;99.90;;;;;;4931677;29;20199;-83
2021/06/12 09:32:29;;;;;;;11.07;10.05;;;21.40;99.90;;;;;;4927947;29;20226;-84
2021/06/12 09:35:02;;;;;;;10.57;9.68;;;21.50;99.90;;;;;;4933290;29;20294;-83
2021/06/12 09:37:29;;;;;;;12.88;11.23;;;21.50;99.90;;;;;;4923560;29;20200;-84
2021/06/12 09:39:58;;;;;;;11.10;10.00;;;21.60;99.90;;;;;;4930096;29;20204;-80
2021/06/12 09:42:40;;;;;;;10.68;8.63;;;21.70;99.90;;;;;;4931861;29;20267;-80
2021/06/12 09:45:11;;;;;;;11.25;10.18;;;21.80;99.90;;;;;;4932331;29;20191;-79
2021/06/12 09:47:39;;;;;;;10.77;9.55;;;21.90;99.90;;;;;;4927118;29;20715;-81
2021/06/12 09:50:08;;;;;;;10.65;9.73;;;21.80;99.90;;;;;;4924479;29;20204;-81
2021/06/12 09:52:43;;;;;;;10.13;9.13;;;21.60;99.90;;;;;;4941332;29;20605;-81
2021/06/12 09:55:21;;;;;;;9.82;8.93;;;21.40;99.90;;;;;;4946108;29;20226;-79
2021/06/12 09:57:52;;;;;;;11.55;10.48;;;21.30;99.90;;;;;;4926562;29;20210;-81
2021/06/12 10:00:29;;;;;;;13.27;11.98;;;21.10;99.90;;;;;;4944232;29;20592;-84
2021/06/12 10:02:58;;;;;;;14.05;12.82;;;20.70;99.90;;;;;;4936131;29;20270;-85
2021/06/12 10:05:26;;;;;;;14.27;12.98;;;20.60;99.90;;;;;;4926005;29;20219;-78
2021/06/12 10:07:54;;;;;;;15.20;13.35;;;20.40;99.90;;;;;;4924441;29;20279;-82
2021/06/12 10:10:21;;;;;;;15.93;13.10;;;20.50;99.90;;;;;;4927417;29;20652;-79
2021/06/12 10:12:51;;;;;;;14.35;13.05;;;20.70;99.90;;;;;;4942990;29;20334;-81
2021/06/12 10:15:19;;;;;;;13.73;12.40;;;21.20;99.90;;;;;;4930866;29;20264;-84
2021/06/12 10:17:48;;;;;;;14.18;12.88;;;21.40;99.90;;;;;;4927388;29;20276;-83
2021/06/12 10:20:18;;;;;;;15.13;13.52;;;21.50;99.90;;;;;;4937649;29;20270;-83
2021/06/12 10:22:50;;;;;;;13.88;12.45;;;21.30;99.90;;;;;;4946196;29;20296;-81
2021/06/12 10:25:19;;;;;;;14.68;13.15;;;21.30;99.90;;;;;;4906774;29;20208;-80
2021/06/12 10:27:46;;;;;;;13.82;12.50;;;21.60;99.90;;;;;;4934159;29;20211;-82
2021/06/12 10:30:19;;;;;;;13.77;11.85;;;21.50;99.90;;;;;;4944425;29;20199;-81
2021/06/12 10:32:48;;;;;;;13.30;11.90;;;21.30;99.90;;;;;;4942151;29;20322;-81
2021/06/12 10:35:16;;;;;;;13.43;12.23;;;21.10;99.90;;;;;;4929140;29;20688;-81
2021/06/12 10:37:57;;;;;;;13.48;12.13;;;21.10;99.90;;;;;;4925375;29;20226;-81
2021/06/12 10:40:39;;;;;;;13.80;12.43;;;21.30;99.90;;;;;;4933367;29;20397;-84
2021/06/12 10:43:14;;;;;;;12.30;11.13;;;21.40;99.90;;;;;;4935227;29;20239;-84
2021/06/12 10:45:45;;;;;;;13.50;12.20;;;21.80;99.90;;;;;;4924736;29;20513;-83
2021/06/12 10:48:40;;;;;;;12.80;11.60;;;22.20;99.90;;;;;;4943039;29;20211;-82
2021/06/12 10:51:07;;;;;;;12.68;11.38;;;22.50;99.90;;;;;;4948154;29;20577;-83
2021/06/12 10:53:33;;;;;;;11.02;9.95;;;22.40;99.90;;;;;;4940928;29;20243;-84
2021/06/12 10:56:02;;;;;;;13.50;9.38;;;22.10;99.90;;;;;;4944351;29;20199;-82
2021/06/12 10:58:48;;;;;;;14.70;9.48;;;21.90;99.90;;;;;;4943536;29;20199;-76
2021/06/12 11:01:20;;;;;;;12.85;10.55;;;21.50;99.90;;;;;;4937087;29;20199;-78
2021/06/12 11:03:53;;;;;;;10.40;8.27;;;21.40;99.90;;;;;;4932845;29;20215;-75
2021/06/12 11:06:31;;;;;;;7.90;6.65;;;21.70;99.90;;;;;;4940067;29;20243;-79
2021/06/12 11:09:29;;;;;;;7.68;6.15;;;21.80;99.90;;;;;;4939131;29;20258;-79
2021/06/12 11:11:57;;;;;;;9.80;6.43;;;22.10;99.90;;;;;;4939195;29;20207;-81
2021/06/12 11:14:29;;;;;;;9.00;6.72;;;22.20;99.90;;;;;;4940345;29;20203;-83
2021/06/12 11:17:19;;;;;;;11.73;7.38;;;22.30;99.90;;;;;;4932350;29;20200;-81
2021/06/12 11:19:49;;;;;;;7.20;5.10;;;22.40;99.90;;;;;;4905384;29;20196;-77
2021/06/12 11:22:31;;;;;;;8.23;4.70;;;22.60;99.90;;;;;;4936975;29;20230;-80
2021/06/12 11:25:00;;;;;;;3.88;3.45;;;22.50;99.90;;;;;;4948795;28;20187;-83
2021/06/12 11:27:29;;;;;;;5.80;3.85;;;22.60;99.90;;;;;;4943053;29;20208;-80
2021/06/12 11:30:14;;;;;;;7.03;3.78;;;22.30;99.90;;;;;;4941755;29;20196;-82
2021/06/12 11:32:45;;;;;;;4.88;3.63;;;22.70;99.90;;;;;;4938155;29;20226;-81
2021/06/12 11:35:12;;;;;;;7.05;3.50;;;23.10;99.90;;;;;;4942947;29;20179;-83
2021/06/12 11:37:51;;;;;;;9.65;4.75;;;23.20;99.90;;;;;;4934363;28;20211;-82
2021/06/12 11:40:22;;;;;;;5.47;3.60;;;23.30;99.90;;;;;;4926458;29;20200;-81
2021/06/12 11:42:49;;;;;;;7.43;4.43;;;23.10;99.90;;;;;;4923931;29;20219;-83
2021/06/12 11:45:22;;;;;;;4.35;3.65;;;23.20;99.90;;;;;;4925694;29;20218;-82
2021/06/12 11:47:51;;;;;;;11.02;4.45;;;23.10;99.90;;;;;;4933239;29;20192;-80
2021/06/12 11:50:25;;;;;;;5.13;3.45;;;23.10;99.90;;;;;;4924966;29;20215;-78
2021/06/12 11:52:53;;;;;;;13.07;3.75;;;22.90;99.90;;;;;;4942538;28;20215;-80
2021/06/12 11:55:24;;;;;;;8.00;4.57;;;23.10;99.90;;;;;;4936623;29;20288;-82
2021/06/12 11:57:52;;;;;;;5.57;3.70;;;23.10;99.90;;;;;;4920928;29;20274;-79
2021/06/12 12:00:29;;;;;;;6.03;4.15;;;23.20;99.90;;;;;;4924967;29;20228;-79
2021/06/12 12:03:06;;;;;;;5.43;3.55;;;23.00;99.90;;;;;;4916585;29;20232;-80
2021/06/12 12:05:35;;;;;;;6.00;3.40;;;23.40;99.90;;;;;;4913041;29;20196;-77
2021/06/12 12:08:02;;;;;;;5.80;4.13;;;23.60;99.90;;;;;;4924419;29;20196;-82
2021/06/12 12:10:29;;;;;;;9.68;3.03;;;23.40;99.90;;;;;;4930104;29;20268;-81
2021/06/12 12:12:57;;;;;;;5.13;3.75;;;23.30;99.90;;;;;;4943244;29;20384;-82
2021/06/12 12:15:41;;;;;;;4.95;3.33;;;23.40;99.90;;;;;;4944331;29;20210;-82
2021/06/12 12:18:11;;;;;;;6.40;3.42;;;23.30;99.90;;;;;;4943946;29;20230;-82
2021/06/12 12:20:40;;;;;;;5.75;3.70;;;23.40;99.90;;;;;;4927628;29;20227;-85
2021/06/12 12:23:24;;;;;;;7.95;3.20;;;22.90;99.90;;;;;;4941676;29;20223;-82
2021/06/12 12:25:54;;;;;;;5.97;3.60;;;22.70;99.90;;;;;;4925082;29;20216;-81
2021/06/12 12:28:22;;;;;;;3.63;3.17;;;22.60;99.90;;;;;;4920326;29;20245;-82
2021/06/12 12:30:49;;;;;;;9.52;3.83;;;23.10;99.90;;;;;;4921471;29;20313;-83
2021/06/12 12:33:19;;;;;;;10.55;3.30;;;23.40;99.90;;;;;;4934313;29;20234;-84
2021/06/12 12:35:47;;;;;;;3.88;2.78;;;23.30;99.90;;;;;;4921965;29;20196;-84
2021/06/12 12:38:16;;;;;;;4.57;2.95;;;23.10;99.90;;;;;;4923054;29;20200;-83
2021/06/12 12:40:44;;;;;;;7.80;3.42;;;23.50;99.90;;;;;;4919509;29;20211;-83
2021/06/12 12:43:13;;;;;;;6.80;3.40;;;23.70;99.90;;;;;;4921094;29;20224;-83